Time;durP1;ratioP1;P1;durP2;ratioP2;P2;SDS_P1;SDS_P2;PMS_P1;PMS_P2;Temp;Humidity;BMP_temperature;BMP_pressure;BME280_temperature;BME280_humidity;BME280_pressure;Samples;Min_cycle;Max_cycle;Signal;HPM_P1;HPM_P2
2022/04/18 00:02:09;;;;;;;10.70;5.20;;;;;;;4.29;55.72;100698.53;4502770;31;20099;-70
2022/04/18 00:04:37;;;;;;;13.05;4.70;;;;;;;4.36;55.43;100698.66;4502822;31;20163;-70
2022/04/18 00:07:04;;;;;;;9.20;5.18;;;;;;;4.35;55.84;100689.06;4502835;31;20088;-70
2022/04/18 00:09:33;;;;;;;12.40;5.93;;;;;;;4.41;57.88;100702.22;4502982;31;20138;-70
2022/04/18 00:12:01;;;;;;;11.90;7.00;;;;;;;4.44;57.36;100687.50;4502667;31;20491;-70
2022/04/18 00:14:28;;;;;;;12.90;6.82;;;;;;;4.48;55.64;100691.03;4502862;31;20131;-70
2022/04/18 00:16:56;;;;;;;12.15;6.68;;;;;;;4.52;57.44;100691.16;4502762;31;20428;-70
2022/04/18 00:19:24;;;;;;;9.52;5.80;;;;;;;4.62;56.56;100686.94;4502760;31;20144;-70
2022/04/18 00:21:51;;;;;;;8.10;5.07;;;;;;;4.71;56.14;100684.50;4502770;31;20092;-70
2022/04/18 00:24:20;;;;;;;5.90;3.90;;;;;;;4.75;56.74;100685.44;4502984;31;20103;-70
2022/04/18 00:26:48;;;;;;;8.50;3.03;;;;;;;4.88;54.27;100676.94;4502567;31;20109;-70
2022/04/18 00:29:15;;;;;;;3.58;2.17;;;;;;;5.08;53.34;100678.97;4502812;31;20519;-70
2022/04/18 00:31:44;;;;;;;1.92;1.73;;;;;;;5.11;51.55;100677.28;4502756;31;20510;-70
2022/04/18 00:34:11;;;;;;;3.35;1.90;;;;;;;5.18;50.91;100678.25;4502732;31;20112;-70
2022/04/18 00:36:39;;;;;;;3.95;2.20;;;;;;;5.30;51.09;100672.31;4502745;31;20170;-70
2022/04/18 00:39:06;;;;;;;3.42;1.95;;;;;;;5.33;50.48;100669.75;4502649;31;20079;-70
2022/04/18 00:41:34;;;;;;;2.10;1.92;;;;;;;5.37;49.84;100675.06;4502545;31;20136;-70
2022/04/18 00:44:02;;;;;;;2.28;1.80;;;;;;;5.38;50.73;100661.13;4502575;31;20516;-70
2022/04/18 00:46:29;;;;;;;6.05;2.47;;;;;;;5.38;50.45;100668.09;4502688;31;20499;-70
2022/04/18 00:48:57;;;;;;;3.75;2.10;;;;;;;5.39;50.14;100667.25;4502701;31;20571;-70
2022/04/18 00:51:26;;;;;;;3.42;1.85;;;;;;;5.36;50.87;100661.97;4502482;31;20095;-70
2022/04/18 00:53:56;;;;;;;2.00;1.62;;;;;;;5.35;50.14;100661.09;4502487;31;20470;-70
2022/04/18 00:56:25;;;;;;;2.08;1.87;;;;;;;5.37;50.53;100658.50;4502345;31;20126;-70
2022/04/18 00:58:54;;;;;;;2.12;1.87;;;;;;;5.42;49.77;100652.47;4502401;31;20096;-70
2022/04/18 01:01:23;;;;;;;9.15;2.17;;;;;;;5.44;49.94;100652.47;4502268;31;20146;-70
2022/04/18 01:03:51;;;;;;;1.95;1.85;;;;;;;5.43;49.90;100649.00;4501806;31;20831;-70
2022/04/18 01:06:19;;;;;;;2.35;1.83;;;;;;;5.40;52.32;100653.31;4502214;31;20087;-70
2022/04/18 01:08:48;;;;;;;2.15;1.62;;;;;;;5.37;50.44;100643.72;4502416;31;20092;-70
2022/04/18 01:11:16;;;;;;;2.15;1.70;;;;;;;5.40;49.75;100641.13;4502563;31;20220;-70
2022/04/18 01:13:50;;;;;;;2.67;1.48;;;;;;;5.39;50.61;100646.34;4502524;31;20103;-70
2022/04/18 01:16:18;;;;;;;2.60;1.90;;;;;;;5.41;50.83;100640.28;4502467;31;20151;-70
2022/04/18 01:18:45;;;;;;;1.73;1.55;;;;;;;5.42;51.06;100635.94;4502469;31;20117;-70
2022/04/18 01:21:19;;;;;;;6.32;1.95;;;;;;;5.44;50.32;100631.56;4502365;31;20489;-70
2022/04/18 01:23:47;;;;;;;2.40;2.00;;;;;;;5.42;50.71;100634.19;4502373;31;20154;-70
2022/04/18 01:29:02;;;;;;;1.90;1.60;;;;;;;5.41;51.56;100632.44;4502238;31;20109;-70
2022/04/18 01:31:31;;;;;;;6.05;1.75;;;;;;;5.41;50.35;100621.13;4502280;31;20088;-70
2022/04/18 01:33:59;;;;;;;5.07;1.60;;;;;;;5.38;49.81;100614.09;4502347;31;20505;-70
2022/04/18 01:36:27;;;;;;;2.25;2.00;;;;;;;5.39;50.65;100620.19;4502352;31;20148;-70
2022/04/18 01:38:55;;;;;;;1.73;1.52;;;;;;;5.38;50.25;100608.00;4502382;31;20435;-70
2022/04/18 01:41:22;;;;;;;4.07;1.90;;;;;;;5.36;50.48;100613.19;4502129;31;20103;-70
2022/04/18 01:43:50;;;;;;;4.55;1.80;;;;;;;5.37;50.22;100611.44;4502306;31;20096;-70
2022/04/18 01:46:18;;;;;;;1.98;1.77;;;;;;;5.34;50.77;100609.69;4502149;31;20102;-70
2022/04/18 01:48:51;;;;;;;2.78;1.80;;;;;;;5.42;51.07;100615.03;4502145;31;20148;-70
2022/04/18 01:51:19;;;;;;;2.25;1.90;;;;;;;5.47;50.73;100602.87;4502243;31;20110;-70
2022/04/18 01:53:47;;;;;;;4.32;1.80;;;;;;;5.47;50.92;100608.09;4502290;31;20099;-70
2022/04/18 01:56:15;;;;;;;2.83;1.75;;;;;;;5.46;51.29;100599.37;4501997;31;20088;-70
2022/04/18 01:58:43;;;;;;;4.37;1.70;;;;;;;5.46;51.31;100602.00;4502063;31;20096;-70
2022/04/18 02:01:10;;;;;;;3.65;1.55;;;;;;;5.57;50.14;100599.53;4502130;31;20504;-70
2022/04/18 02:03:42;;;;;;;2.15;1.92;;;;;;;5.54;50.91;100593.37;4501943;31;20170;-70
2022/04/18 02:06:10;;;;;;;1.98;1.67;;;;;;;5.56;50.60;100597.78;4502031;31;20096;-70
2022/04/18 02:08:38;;;;;;;3.37;2.00;;;;;;;5.60;50.81;100594.31;4501979;31;20443;-70
2022/04/18 02:11:06;;;;;;;1.83;1.70;;;;;;;5.59;50.25;100589.09;4501998;31;20447;-70
2022/04/18 02:13:34;;;;;;;2.30;1.75;;;;;;;5.62;49.65;100583.88;4501828;31;20107;-70
2022/04/18 02:16:04;;;;;;;1.58;1.48;;;;;;;5.53;50.48;100578.56;4501486;31;20203;-70
2022/04/18 02:18:31;;;;;;;2.78;1.75;;;;;;;5.51;51.30;100588.97;4501702;31;20112;-70
2022/04/18 02:20:59;;;;;;;1.48;1.37;;;;;;;5.50;50.16;100580.28;4501861;31;20446;-70
2022/04/18 02:23:26;;;;;;;1.87;1.67;;;;;;;5.57;49.99;100578.59;4501642;31;20125;-70
2022/04/18 02:25:53;;;;;;;3.25;1.83;;;;;;;5.63;49.29;100578.69;4501594;31;20530;-70
2022/04/18 02:28:21;;;;;;;2.85;1.75;;;;;;;5.65;49.00;100576.06;4501837;31;20099;-70
2022/04/18 02:30:49;;;;;;;1.30;1.20;;;;;;;5.63;49.24;100568.22;4501862;31;20578;-70
2022/04/18 02:33:18;;;;;;;2.30;1.52;;;;;;;5.60;49.33;100570.81;4501623;31;20104;-70
2022/04/18 02:35:45;;;;;;;2.67;2.00;;;;;;;5.61;49.47;100567.31;4501797;31;20488;-70
2022/04/18 02:38:13;;;;;;;1.60;1.40;;;;;;;5.67;48.68;100563.91;4501785;31;20482;-70
2022/04/18 02:40:41;;;;;;;3.35;2.00;;;;;;;5.67;48.83;100564.78;4501841;31;20103;-70
2022/04/18 02:43:09;;;;;;;1.70;1.60;;;;;;;5.63;49.44;100563.00;4501644;31;20344;-70
2022/04/18 02:45:38;;;;;;;2.78;1.35;;;;;;;5.64;48.60;100559.50;4501704;31;20084;-70
2022/04/18 02:48:07;;;;;;;3.35;1.50;;;;;;;5.66;48.87;100552.59;4501733;31;20771;-70
2022/04/18 02:50:35;;;;;;;1.65;1.50;;;;;;;5.68;48.17;100552.59;4501720;31;20099;-70
2022/04/18 02:53:04;;;;;;;2.55;1.60;;;;;;;5.59;48.67;100550.75;4501678;31;20123;-70
2022/04/18 02:55:32;;;;;;;1.75;1.58;;;;;;;5.63;48.16;100546.44;4501643;31;20507;-70
2022/04/18 02:57:59;;;;;;;3.17;2.15;;;;;;;5.59;48.95;100542.91;4501753;31;20159;-70
2022/04/18 03:00:28;;;;;;;2.83;1.95;;;;;;;5.54;48.98;100547.19;4501723;31;20103;-70
2022/04/18 03:02:55;;;;;;;2.05;1.85;;;;;;;5.56;49.53;100549.84;4501523;31;20171;-70
2022/04/18 03:05:23;;;;;;;1.90;1.40;;;;;;;5.53;49.55;100545.47;4501289;31;20481;-70
2022/04/18 03:07:51;;;;;;;1.77;1.58;;;;;;;5.53;49.47;100540.22;4501561;31;20134;-70
2022/04/18 03:11:02;;;;;;;2.45;1.67;;;;;;;5.53;49.86;100542.84;4501512;31;20466;-70
2022/04/18 03:13:07;;;;;;;3.72;2.30;;;;;;;5.52;49.61;100533.25;4501417;31;20198;-70
2022/04/18 03:15:34;;;;;;;6.03;1.98;;;;;;;5.55;49.68;100529.78;4501234;31;20103;-70
2022/04/18 03:18:01;;;;;;;2.12;1.73;;;;;;;5.48;49.64;100534.09;4501357;31;20510;-70
2022/04/18 03:20:29;;;;;;;2.15;1.70;;;;;;;5.44;49.78;100525.34;4501413;31;20092;-70
2022/04/18 03:22:56;;;;;;;1.75;1.65;;;;;;;5.42;49.72;100527.03;4501077;31;20117;-70
2022/04/18 03:25:27;;;;;;;3.30;1.90;;;;;;;5.42;49.62;100529.66;4501436;31;20148;-70
2022/04/18 03:27:54;;;;;;;2.30;1.60;;;;;;;5.41;49.41;100524.44;4500159;31;20083;-70
2022/04/18 03:30:21;;;;;;;1.73;1.58;;;;;;;5.43;49.33;100523.56;4501163;31;20096;-70
2022/04/18 03:32:48;;;;;;;2.92;1.75;;;;;;;5.46;49.41;100522.72;4501232;31;20245;-70
2022/04/18 03:35:16;;;;;;;1.83;1.50;;;;;;;5.47;49.21;100524.47;4501378;31;20083;-70
2022/04/18 03:40:36;;;;;;;1.50;1.40;;;;;;;5.42;49.69;100516.59;4482242;31;20103;-70
2022/04/18 03:43:04;;;;;;;2.08;1.70;;;;;;;5.38;49.79;100521.78;4500867;31;20140;-70
2022/04/18 03:45:32;;;;;;;2.60;1.50;;;;;;;5.41;50.26;100524.44;4500933;31;20095;-70
2022/04/18 03:48:00;;;;;;;1.77;1.60;;;;;;;5.41;49.96;100516.59;4501155;31;20113;-70
2022/04/18 03:50:29;;;;;;;4.00;1.60;;;;;;;5.40;49.89;100509.59;4501003;31;20100;-70
2022/04/18 03:52:56;;;;;;;3.95;1.60;;;;;;;5.42;50.01;100508.75;4501141;31;20112;-70
2022/04/18 03:55:25;;;;;;;3.00;1.90;;;;;;;5.44;49.58;100509.66;4500945;31;20156;-70
2022/04/18 03:57:53;;;;;;;3.33;1.77;;;;;;;5.44;49.85;100508.75;4500978;31;20125;-70
2022/04/18 04:00:20;;;;;;;5.28;1.90;;;;;;;5.42;50.18;100505.28;4500605;31;20095;-70
2022/04/18 04:02:48;;;;;;;3.55;2.17;;;;;;;5.41;49.95;100503.53;4500519;31;20091;-70
2022/04/18 04:05:16;;;;;;;2.95;1.60;;;;;;;5.47;49.94;100506.19;4500963;31;20114;-70
2022/04/18 04:07:45;;;;;;;2.35;1.70;;;;;;;5.42;50.52;100502.66;4500915;31;20174;-70
2022/04/18 04:10:14;;;;;;;2.15;1.60;;;;;;;5.43;50.21;100500.03;4500880;31;20092;-70
2022/04/18 04:12:42;;;;;;;3.53;1.85;;;;;;;5.47;49.69;100507.06;4500438;31;20178;-70
2022/04/18 04:15:11;;;;;;;3.45;1.90;;;;;;;5.48;50.20;100502.72;4500858;31;20092;-70
2022/04/18 04:17:40;;;;;;;3.45;1.70;;;;;;;5.49;50.03;100505.34;4500602;31;20160;-70
2022/04/18 04:20:23;;;;;;;2.33;1.67;;;;;;;5.50;50.29;100507.09;4497935;31;82328;-70
2022/04/18 04:22:51;;;;;;;1.98;1.60;;;;;;;5.49;50.30;100510.56;4500362;31;20502;-70
2022/04/18 04:25:22;;;;;;;1.80;1.65;;;;;;;5.54;50.38;100501.91;4500488;31;20092;-70
2022/04/18 04:27:51;;;;;;;3.45;2.45;;;;;;;5.53;50.37;100503.62;4500381;31;20088;-70
2022/04/18 04:30:18;;;;;;;2.90;1.40;;;;;;;5.58;49.90;100507.16;4500187;31;20137;-70
2022/04/18 04:32:54;;;;;;;1.65;1.55;;;;;;;5.55;50.52;100507.16;4500552;31;20487;-70
2022/04/18 04:35:21;;;;;;;4.12;1.92;;;;;;;5.61;50.31;100507.19;4500415;31;20080;-70
2022/04/18 04:37:50;;;;;;;2.10;1.87;;;;;;;5.69;49.86;100505.56;4500367;31;20454;-70
2022/04/18 04:40:19;;;;;;;3.65;1.50;;;;;;;5.71;50.09;100502.94;4502537;31;20103;-70
2022/04/18 04:42:47;;;;;;;2.17;1.67;;;;;;;5.80;50.31;100502.19;4502545;31;20538;-70
2022/04/18 04:45:14;;;;;;;2.55;1.80;;;;;;;5.91;49.61;100500.53;4502476;31;20113;-70
2022/04/18 04:47:54;;;;;;;2.47;1.80;;;;;;;5.97;49.88;100501.50;4502741;31;20410;-70
2022/04/18 04:50:21;;;;;;;2.25;1.65;;;;;;;6.03;50.16;100503.28;4502580;31;20889;-70
2022/04/18 04:52:50;;;;;;;2.37;1.70;;;;;;;6.03;50.99;100500.66;4502274;31;20170;-70
2022/04/18 04:55:17;;;;;;;2.58;1.70;;;;;;;6.10;51.04;100491.13;4502526;31;20218;-70
2022/04/18 04:57:45;;;;;;;1.80;1.70;;;;;;;6.25;51.13;100501.69;4502284;31;20545;-70
2022/04/18 05:00:16;;;;;;;2.10;1.90;;;;;;;6.15;51.38;100490.31;4502479;31;20160;-70
2022/04/18 05:02:46;;;;;;;4.00;2.35;;;;;;;6.12;52.02;100492.03;4502400;31;20565;-70
2022/04/18 05:05:14;;;;;;;4.82;2.40;;;;;;;6.21;51.59;100492.94;4502375;31;20184;-70
2022/04/18 05:07:41;;;;;;;4.18;2.28;;;;;;;6.36;50.81;100497.44;4502471;31;20509;-70
2022/04/18 05:10:08;;;;;;;2.70;1.85;;;;;;;6.55;50.14;100494.94;4502352;31;20455;-70
2022/04/18 05:12:36;;;;;;;4.62;2.65;;;;;;;6.59;52.46;100500.19;4502399;31;20099;-70
2022/04/18 05:15:05;;;;;;;7.70;2.67;;;;;;;6.56;51.17;100494.94;4502466;31;20100;-70
2022/04/18 05:17:35;;;;;;;5.10;2.87;;;;;;;6.75;49.52;100489.78;4502449;31;20088;-70
2022/04/18 05:20:05;;;;;;;8.32;2.70;;;;;;;6.89;49.18;100498.59;4502124;31;20103;-70
2022/04/18 05:22:34;;;;;;;3.10;1.90;;;;;;;6.94;49.52;100495.16;4502276;31;20182;-70
2022/04/18 05:25:01;;;;;;;2.80;1.98;;;;;;;7.02;48.94;100496.94;4502092;31;20446;-70
2022/04/18 05:27:30;;;;;;;2.60;2.40;;;;;;;7.04;49.41;100490.84;4501867;31;20416;-70
2022/04/18 05:29:57;;;;;;;2.83;2.00;;;;;;;7.12;49.21;100496.97;4502206;31;20125;-70
2022/04/18 05:32:24;;;;;;;1.92;1.80;;;;;;;7.11;50.06;100489.13;4487363;31;20375;-70
2022/04/18 05:34:52;;;;;;;6.25;2.17;;;;;;;7.30;48.76;100482.19;4502340;31;20076;-70
2022/04/18 05:37:20;;;;;;;5.37;1.95;;;;;;;7.37;50.79;100484.81;4502225;31;20122;-70
2022/04/18 05:39:50;;;;;;;3.70;1.85;;;;;;;7.39;49.60;100488.34;4502147;31;20088;-70
2022/04/18 05:42:22;;;;;;;4.43;2.30;;;;;;;7.51;48.47;100489.22;4502063;31;20126;-70
2022/04/18 05:44:50;;;;;;;4.10;2.17;;;;;;;7.69;47.45;100485.75;4502172;31;20104;-70
2022/04/18 05:47:17;;;;;;;2.37;2.03;;;;;;;7.84;46.50;100486.69;4501899;31;20092;-70
2022/04/18 05:49:45;;;;;;;2.53;1.87;;;;;;;7.82;46.71;100492.78;4501522;31;20104;-70
2022/04/18 05:52:15;;;;;;;3.95;2.22;;;;;;;7.97;46.60;100489.28;4501641;31;20171;-70
2022/04/18 05:54:43;;;;;;;2.87;2.03;;;;;;;8.08;46.37;100487.53;4502041;31;20147;-70
2022/04/18 05:57:11;;;;;;;3.12;2.20;;;;;;;8.22;46.29;100490.16;4501947;31;20504;-67
2022/04/18 05:59:38;;;;;;;2.42;2.00;;;;;;;8.37;44.97;100487.50;4501812;31;20159;-67
2022/04/18 06:02:06;;;;;;;3.75;2.08;;;;;;;8.34;44.71;100487.53;4501881;31;20114;-67
2022/04/18 06:04:34;;;;;;;4.80;2.30;;;;;;;8.52;44.04;100484.91;4501867;31;20076;-67
2022/04/18 06:07:04;;;;;;;3.42;2.15;;;;;;;8.72;43.52;100483.97;4501862;31;20103;-67
2022/04/18 06:09:32;;;;;;;5.32;2.20;;;;;;;8.64;44.43;100483.12;4501725;31;20112;-67
2022/04/18 06:12:00;;;;;;;4.47;1.90;;;;;;;8.87;43.74;100476.06;4501930;31;20091;-67
2022/04/18 06:14:27;;;;;;;3.20;1.65;;;;;;;8.97;44.05;100475.13;4501811;31;20084;-68
2022/04/18 06:16:54;;;;;;;2.62;1.80;;;;;;;8.90;44.06;100478.66;4501676;31;20522;-68
2022/04/18 06:19:23;;;;;;;6.20;2.17;;;;;;;9.06;43.03;100475.09;4501797;31;20095;-67
2022/04/18 06:21:50;;;;;;;3.30;2.08;;;;;;;9.10;42.35;100482.09;4501843;31;20226;-67
2022/04/18 06:24:18;;;;;;;2.55;2.17;;;;;;;9.06;42.78;100476.88;4501806;31;20091;-67
2022/04/18 06:26:46;;;;;;;3.22;2.15;;;;;;;9.06;43.34;100484.75;4501572;31;20137;-67
2022/04/18 06:29:13;;;;;;;3.78;2.40;;;;;;;9.16;43.57;100482.97;4501721;31;20899;-67
2022/04/18 06:31:41;;;;;;;2.75;2.00;;;;;;;9.20;42.20;100489.94;4501772;31;20174;-67
2022/04/18 06:34:09;;;;;;;3.70;2.25;;;;;;;9.28;43.04;100478.50;4501773;31;20142;-67
2022/04/18 06:36:37;;;;;;;2.50;2.20;;;;;;;9.38;43.27;100489.84;4501727;31;20096;-67
2022/04/18 06:39:06;;;;;;;5.50;2.85;;;;;;;9.42;42.43;100488.94;4501640;31;20538;-67
2022/04/18 06:41:34;;;;;;;3.97;2.30;;;;;;;9.53;42.14;100491.50;4501534;31;20095;-67
2022/04/18 06:44:01;;;;;;;5.07;2.20;;;;;;;9.65;42.16;100485.31;4501351;31;20827;-67
2022/04/18 06:46:30;;;;;;;3.35;2.20;;;;;;;9.64;43.11;100488.81;4501683;31;20126;-67
2022/04/18 06:49:00;;;;;;;3.50;2.55;;;;;;;9.66;42.32;100484.44;4501522;31;20083;-67
2022/04/18 06:51:30;;;;;;;6.72;2.47;;;;;;;9.81;43.58;100486.94;4501549;31;20203;-67
2022/04/18 06:53:59;;;;;;;4.10;2.17;;;;;;;10.02;42.03;100483.28;4501522;31;20092;-68
2022/04/18 06:59:14;;;;;;;4.78;2.50;;;;;;;10.41;42.26;100479.44;4501629;31;20099;-68
2022/04/18 07:01:42;;;;;;;2.62;1.90;;;;;;;10.60;40.19;100479.25;4501513;31;20129;-68
2022/04/18 07:04:09;;;;;;;5.68;2.47;;;;;;;10.55;39.53;100478.44;4501387;31;20137;-67
2022/04/18 07:06:36;;;;;;;3.70;1.95;;;;;;;10.46;39.32;100480.31;4501600;31;20100;-67
2022/04/18 07:09:04;;;;;;;2.33;1.87;;;;;;;10.33;40.18;100481.28;4501417;31;20115;-68
2022/04/18 07:11:35;;;;;;;2.53;2.05;;;;;;;10.35;39.91;100481.28;4501416;31;20137;-68
2022/04/18 07:14:02;;;;;;;3.85;1.70;;;;;;;10.43;40.13;100480.31;4501406;31;20087;-67
2022/04/18 07:16:30;;;;;;;2.03;1.77;;;;;;;10.33;39.70;100485.69;4501491;31;20091;-67
2022/04/18 07:18:58;;;;;;;3.20;1.83;;;;;;;10.28;40.50;100483.09;4501363;31;20103;-67
2022/04/18 07:21:27;;;;;;;3.15;2.42;;;;;;;10.18;41.26;100484.91;4501101;31;20098;-68
2022/04/18 07:23:54;;;;;;;2.97;2.08;;;;;;;10.22;41.50;100483.12;4501017;31;20088;-67
2022/04/18 07:26:22;;;;;;;2.15;1.95;;;;;;;10.11;41.98;100485.84;4501318;31;20088;-67
2022/04/18 07:28:50;;;;;;;2.53;2.10;;;;;;;9.98;41.61;100482.44;4500945;31;20152;-67
2022/04/18 07:31:17;;;;;;;3.50;2.00;;;;;;;9.94;41.88;100485.97;4501043;31;20167;-67
2022/04/18 07:33:46;;;;;;;2.97;1.65;;;;;;;9.93;42.17;100481.63;4501213;31;20519;-68
2022/04/18 07:36:14;;;;;;;1.85;1.75;;;;;;;10.31;41.19;100475.16;4501163;31;20143;-67
2022/04/18 07:38:51;;;;;;;2.20;2.00;;;;;;;10.39;40.09;100478.63;4501264;31;20092;-67
2022/04/18 07:41:23;;;;;;;3.53;2.12;;;;;;;10.49;41.95;100471.47;4501121;31;20170;-68
2022/04/18 07:43:51;;;;;;;3.55;2.17;;;;;;;10.58;40.89;100474.03;4501068;31;20111;-68
2022/04/18 07:46:20;;;;;;;2.67;1.85;;;;;;;10.58;40.46;100468.75;4500990;31;20122;-68
2022/04/18 07:48:50;;;;;;;2.45;2.22;;;;;;;10.78;40.99;100479.09;4500916;31;20464;-67
2022/04/18 07:54:09;;;;;;;4.90;2.12;;;;;;;10.37;40.49;100477.75;4500994;31;20507;-67
2022/04/18 07:56:37;;;;;;;3.47;2.10;;;;;;;10.19;40.22;100477.87;4500634;31;20107;-67
2022/04/18 07:59:05;;;;;;;3.10;1.90;;;;;;;9.97;40.85;100477.19;4500657;31;20146;-67
2022/04/18 08:01:33;;;;;;;4.80;1.80;;;;;;;9.56;42.29;100492.38;4500927;31;20144;-67
2022/04/18 08:04:02;;;;;;;4.35;2.30;;;;;;;9.13;45.90;100490.84;4500751;31;20199;-68
2022/04/18 08:06:31;;;;;;;3.42;1.90;;;;;;;8.92;46.27;100487.44;4500747;31;20440;-67
2022/04/18 08:09:00;;;;;;;2.03;1.80;;;;;;;8.91;47.56;100488.31;4500656;31;20099;-68
2022/04/18 08:11:28;;;;;;;7.62;3.03;;;;;;;8.90;46.25;100489.16;4500706;31;20419;-67
2022/04/18 08:13:55;;;;;;;2.95;1.70;;;;;;;8.72;46.50;100483.97;4501312;31;20110;-67
2022/04/18 08:16:26;;;;;;;2.10;1.90;;;;;;;8.80;47.12;100477.84;4502716;31;20415;-67
2022/04/18 08:18:55;;;;;;;2.83;1.70;;;;;;;8.78;48.49;100482.22;4502703;31;20208;-67
2022/04/18 08:21:23;;;;;;;5.18;1.90;;;;;;;8.72;49.79;100469.09;4502741;31;20134;-67
2022/04/18 08:23:51;;;;;;;2.62;1.92;;;;;;;8.88;49.14;100474.31;4502779;31;20464;-67
2022/04/18 08:26:24;;;;;;;1.90;1.73;;;;;;;8.82;50.53;100472.56;4502579;31;20707;-67
2022/04/18 08:28:51;;;;;;;3.60;2.15;;;;;;;9.08;48.24;100461.94;4502540;31;20373;-67
2022/04/18 08:31:19;;;;;;;4.22;1.92;;;;;;;9.41;47.37;100465.31;4502377;31;20099;-67
2022/04/18 08:33:46;;;;;;;2.25;1.95;;;;;;;9.76;46.30;100451.91;4502771;31;20525;-68
2022/04/18 08:36:14;;;;;;;3.72;1.87;;;;;;;10.00;45.02;100449.09;4502437;31;20155;-68
2022/04/18 08:38:41;;;;;;;2.78;1.77;;;;;;;9.93;44.54;100450.03;4502287;31;20553;-68
2022/04/18 08:41:20;;;;;;;1.83;1.70;;;;;;;10.08;44.41;100456.03;4502576;31;20503;-68
2022/04/18 08:43:49;;;;;;;5.10;1.98;;;;;;;10.12;45.02;100455.13;4502600;31;20068;-67
2022/04/18 08:46:17;;;;;;;2.33;1.90;;;;;;;10.19;44.62;100443.66;4502513;31;20100;-68
2022/04/18 08:54:22;;;;;;;3.17;1.70;;;;;;;10.02;45.67;100434.13;4502521;31;20102;-68
2022/04/18 08:56:50;;;;;;;4.53;2.20;;;;;;;9.94;45.48;100443.87;4502539;31;20608;-68
2022/04/18 08:59:18;;;;;;;3.20;2.00;;;;;;;9.96;45.40;100438.56;4502398;31;20415;-68
2022/04/18 09:01:50;;;;;;;2.53;1.65;;;;;;;9.71;45.67;100438.78;4502194;31;20103;-68
2022/04/18 09:04:22;;;;;;;2.12;1.92;;;;;;;9.48;46.23;100433.69;4502438;31;20495;-67
2022/04/18 09:06:52;;;;;;;4.00;1.83;;;;;;;9.48;44.22;100444.22;4502417;31;20156;-67
2022/04/18 09:09:28;;;;;;;2.97;1.77;;;;;;;9.69;44.71;100431.78;4502091;31;20122;-68
2022/04/18 09:11:55;;;;;;;6.40;1.33;;;;;;;9.95;44.52;100426.31;4502523;31;20107;-68
2022/04/18 09:14:25;;;;;;;2.90;1.83;;;;;;;10.00;43.91;100424.50;4502169;31;20079;-68
2022/04/18 09:16:53;;;;;;;10.35;5.68;;;;;;;10.31;44.31;100425.12;4502195;31;20144;-68
2022/04/18 09:19:22;;;;;;;3.75;2.00;;;;;;;10.79;41.69;100422.84;4502260;31;20178;-68
2022/04/18 09:21:58;;;;;;;2.72;1.90;;;;;;;11.58;38.39;100418.22;4487606;31;20548;-68
2022/04/18 09:24:32;;;;;;;2.10;1.85;;;;;;;11.30;39.97;100411.62;4501747;31;20082;-67
2022/04/18 09:27:06;;;;;;;3.17;2.20;;;;;;;11.12;39.45;100410.97;4501709;31;20114;-68
2022/04/18 09:29:38;;;;;;;5.53;2.95;;;;;;;11.75;39.53;100395.97;4502243;31;20127;-68
2022/04/18 09:32:11;;;;;;;1.87;1.70;;;;;;;12.00;40.13;100401.75;4502294;31;20103;-68
2022/04/18 09:34:44;;;;;;;2.12;1.90;;;;;;;12.64;40.78;100403.19;4502089;31;20167;-68
2022/04/18 09:37:17;;;;;;;3.25;2.50;;;;;;;13.24;39.78;100397.50;4502034;31;20091;-68
2022/04/18 09:39:52;;;;;;;6.68;2.37;;;;;;;13.91;36.24;100391.50;4502175;31;20126;-68
2022/04/18 09:42:23;;;;;;;2.12;1.98;;;;;;;14.09;35.80;100385.72;4502273;31;20533;-68
2022/04/18 09:44:52;;;;;;;1.92;1.83;;;;;;;13.81;36.05;100383.78;4502094;31;20356;-68
2022/04/18 09:47:22;;;;;;;2.55;2.08;;;;;;;14.35;34.74;100374.44;4487167;31;20397;-66
2022/04/18 09:49:50;;;;;;;4.68;2.37;;;;;;;13.98;36.60;100380.72;4502009;31;20369;-66
2022/04/18 09:52:20;;;;;;;2.08;1.95;;;;;;;14.03;36.72;100375.31;4502013;31;20112;-65
2022/04/18 09:54:55;;;;;;;3.15;2.08;;;;;;;11.93;36.64;100366.66;4501949;31;20157;-65
2022/04/18 09:57:32;;;;;;;4.12;2.65;;;;;;;12.06;38.66;100360.25;4501922;31;20533;-66
2022/04/18 09:59:59;;;;;;;4.37;2.35;;;;;;;12.79;38.41;100371.16;4501793;31;20488;-66
2022/04/18 10:02:29;;;;;;;4.30;2.78;;;;;;;12.67;37.46;100360.81;4502080;31;20490;-66
2022/04/18 10:04:58;;;;;;;2.45;2.15;;;;;;;12.79;37.00;100367.62;4501660;31;20132;-66
2022/04/18 10:07:26;;;;;;;2.20;1.98;;;;;;;13.12;36.15;100358.94;4501687;31;20108;-66
2022/04/18 10:09:55;;;;;;;4.97;2.55;;;;;;;13.51;36.99;100348.38;4501635;31;20154;-66
2022/04/18 10:12:22;;;;;;;3.60;2.67;;;;;;;14.17;35.10;100349.31;4501703;31;20155;-66
2022/04/18 10:14:49;;;;;;;3.83;1.87;;;;;;;14.21;33.06;100342.16;4501614;31;20555;-66
2022/04/18 10:17:17;;;;;;;2.25;1.90;;;;;;;14.76;34.05;100341.47;4501812;31;20545;-66
2022/04/18 10:20:14;;;;;;;3.65;2.22;;;;;;;15.10;32.57;100337.78;4501781;31;20510;-66
2022/04/18 10:22:56;;;;;;;2.65;1.87;;;;;;;15.53;32.43;100331.09;4501743;31;20587;-66
2022/04/18 10:25:49;;;;;;;2.85;2.25;;;;;;;16.05;32.07;100328.50;4501619;31;20609;-66
2022/04/18 10:28:18;;;;;;;5.10;2.28;;;;;;;16.12;31.48;100330.88;4501545;31;20087;-66
2022/04/18 10:30:53;;;;;;;1.95;1.73;;;;;;;16.71;30.82;100326.91;4501620;31;20085;-66
2022/04/18 10:33:21;;;;;;;4.90;2.55;;;;;;;16.77;30.98;100324.06;4501702;31;20148;-66
2022/04/18 10:35:53;;;;;;;3.55;2.20;;;;;;;16.57;29.64;100322.16;4501494;31;20178;-66
2022/04/18 10:38:25;;;;;;;3.25;2.15;;;;;;;16.28;30.66;100323.19;4501431;31;20147;-66
2022/04/18 10:43:57;;;;;;;2.33;2.00;;;;;;;15.67;31.59;100312.94;4501493;31;20118;-66
2022/04/18 10:46:25;;;;;;;4.18;2.17;;;;;;;16.09;30.72;100307.06;4501577;31;20068;-66
2022/04/18 10:49:31;;;;;;;3.80;2.58;;;;;;;16.28;31.06;100304.59;4486918;31;20095;-66
2022/04/18 10:52:08;;;;;;;2.65;2.45;;;;;;;16.34;29.15;100304.38;4460626;31;20497;-66
2022/04/18 10:54:36;;;;;;;3.80;2.22;;;;;;;16.75;30.19;100299.31;4501595;31;20495;-66
2022/04/18 10:57:15;;;;;;;4.65;2.17;;;;;;;16.31;28.84;100298.31;4501379;31;20109;-66
2022/04/18 10:59:46;;;;;;;3.05;2.53;;;;;;;14.81;31.20;100299.75;4501575;31;20075;-66
2022/04/18 11:02:39;;;;;;;2.62;2.42;;;;;;;14.60;35.54;100297.75;4501699;31;20097;-66
2022/04/18 11:05:07;;;;;;;2.78;2.30;;;;;;;13.83;39.04;100302.53;4501314;31;20095;-66
2022/04/18 11:07:39;;;;;;;2.42;2.10;;;;;;;14.38;35.81;100301.91;4501318;31;20107;-66
2022/04/18 11:10:28;;;;;;;3.00;1.80;;;;;;;15.00;34.30;100297.41;4501348;31;20163;-66
2022/04/18 11:13:00;;;;;;;3.92;2.33;;;;;;;14.08;32.42;100294.78;4501424;31;20123;-66
2022/04/18 11:15:27;;;;;;;2.65;2.40;;;;;;;13.09;34.76;100292.00;4501425;31;20464;-65
2022/04/18 11:18:01;;;;;;;2.97;2.30;;;;;;;12.98;36.21;100307.28;4501311;31;20109;-66
2022/04/18 11:20:32;;;;;;;5.45;2.40;;;;;;;14.59;31.38;100288.06;4501291;31;20240;-66
2022/04/18 11:23:27;;;;;;;4.07;2.58;;;;;;;15.29;30.78;100282.31;4501391;31;20083;-66
2022/04/18 11:25:59;;;;;;;3.10;2.40;;;;;;;16.39;28.88;100283.78;4501147;31;20112;-66
2022/04/18 11:28:33;;;;;;;4.18;1.90;;;;;;;16.79;28.39;100270.81;4501144;31;20154;-66
2022/04/18 11:31:08;;;;;;;2.62;1.75;;;;;;;18.41;25.57;100261.22;4501277;31;20121;-66
2022/04/18 11:33:42;;;;;;;2.78;2.15;;;;;;;18.86;26.27;100270.69;4500990;31;20099;-66
2022/04/18 11:36:11;;;;;;;2.87;2.47;;;;;;;17.03;26.56;100261.84;4501238;31;20139;-66
2022/04/18 11:38:38;;;;;;;4.78;2.10;;;;;;;16.05;27.27;100265.56;4501066;31;20092;-66
2022/04/18 11:41:12;;;;;;;2.45;2.25;;;;;;;16.79;27.96;100278.78;4500892;31;20130;-66
2022/04/18 11:43:40;;;;;;;6.20;2.20;;;;;;;19.36;28.62;100267.34;4501054;31;20477;-66
2022/04/18 11:46:09;;;;;;;4.93;2.08;;;;;;;19.49;27.83;100267.59;4500779;31;20143;-66
2022/04/18 11:48:38;;;;;;;3.05;2.58;;;;;;;17.92;29.23;100269.62;4499890;31;20163;-66
2022/04/18 11:51:08;;;;;;;4.00;2.45;;;;;;;17.08;30.66;100254.53;4500789;31;20087;-66
2022/04/18 11:53:39;;;;;;;3.33;2.30;;;;;;;15.45;32.41;100266.75;4500713;31;20091;-66
2022/04/18 11:56:07;;;;;;;3.90;2.67;;;;;;;14.63;32.80;100265.84;4500744;31;20164;-66
2022/04/18 11:58:40;;;;;;;5.00;2.45;;;;;;;13.61;35.75;100264.28;4500685;31;20076;-66
2022/04/18 12:06:49;;;;;;;2.05;1.95;;;;;;;11.76;38.54;100269.22;4500829;31;19991;-66
2022/04/18 12:09:22;;;;;;;4.32;2.58;;;;;;;11.40;43.78;100289.22;4500599;31;20072;-68